KGLW/GLW METAR and TAF weather

Enter ICAO airport designator
Station Type Date Time Source
KGLW METAR 2020/09/22 00:55 UTC NOAA

KGLW 220055Z AUTO 00000KT 10SM CLR 15/13 A3028 RMK AO2 T01480129


Station Type Date Time Source
KGLW Decoded METAR 2020/09/22 00:55 UTC NOAA

Glasgow, Glasgow Municipal Airport, KY, United States (KGLW) 37-01-54N 085-57-13W
Sep 21, 2020 - 08:55 PM EDT / 2020.09.22 0055 UTC
Wind: Calm:0
Visibility: 10 mile(s):0
Sky conditions: clear
Temperature: 58.6 F (14.8 C)
Dew Point: 55.2 F (12.9 C)
Relative Humidity: 88%
Pressure (altimeter): 30.28 in. Hg (1025 hPa)
ob: KGLW 220055Z AUTO 00000KT 10SM CLR 15/13 A3028 RMK AO2 T01480129
cycle: 1

Station Type Date Time Source
KGLW TAF UTC NOAA

Error!

Example: see airport list